Terminal Aerodrome Forecast
Issued by NWS

Home | Current Version | Previous Version | Text Only | Print | Product List | Glossary On
Versions: 1 2 3 4 5 6 7 8 9 10 11 12 13 14 15 16 17 18 19 20 21 22 23 24 25 26 27 28 29 30 31 32 33 34 35 36
856
FTUS41 KPBZ 281332 AAA
TAFMGW
TAF AMD
KMGW 281332Z 2814/2912 18003KT 3SM SHRA BKN050
      TEMPO 2814/2815 1SM TSRA BKN025CB
     FM281700 VRB03KT 6SM -SHRA BKN050
     FM290100 VRB03KT 3SM -SHRA OVC015
     FM290300 00000KT 2SM -SHRA OVC008=

USA.gov is the U.S. government's official web portal to all federal, state and local government web resources and services.